Time;durP1;ratioP1;P1;durP2;ratioP2;P2;SDS_P1;SDS_P2;PMS_P1;PMS_P2;Temp;Humidity;BMP_temperature;BMP_pressure;BME280_temperature;BME280_humidity;BME280_pressure;Samples;Min_cycle;Max_cycle;Signal;HPM_P1;HPM_P2
2024/01/28 00:00:57;;;;;;;14.23;3.97;;;3.40;99.90;;;;;;5045877;28;20268;-53
2024/01/28 00:03:22;;;;;;;15.93;4.60;;;3.50;99.90;;;;;;5043864;28;20220;-60
2024/01/28 00:05:49;;;;;;;11.67;4.17;;;3.50;99.90;;;;;;5054346;28;20205;-59
2024/01/28 00:08:15;;;;;;;13.70;3.93;;;3.40;99.90;;;;;;5030503;28;20211;-66
2024/01/28 00:10:41;;;;;;;12.67;4.27;;;3.30;99.90;;;;;;5051581;28;20202;-61
2024/01/28 00:13:06;;;;;;;11.50;3.40;;;3.40;99.90;;;;;;5047428;28;20625;-59
2024/01/28 00:15:32;;;;;;;17.93;4.70;;;3.20;99.90;;;;;;5036684;28;20206;-53
2024/01/28 00:17:57;;;;;;;13.73;4.47;;;3.10;99.90;;;;;;5035397;28;20222;-52
2024/01/28 00:20:23;;;;;;;10.47;3.97;;;3.10;99.90;;;;;;5023985;28;20256;-52
2024/01/28 00:22:49;;;;;;;11.30;3.93;;;3.20;99.90;;;;;;5025776;28;20791;-54
2024/01/28 00:25:16;;;;;;;11.73;4.17;;;3.30;99.90;;;;;;5041631;28;20198;-52
2024/01/28 00:27:41;;;;;;;6.50;3.93;;;3.20;99.90;;;;;;5038772;28;20667;-54
2024/01/28 00:30:08;;;;;;;10.63;3.50;;;3.20;99.90;;;;;;5042490;28;20284;-55
2024/01/28 00:32:34;;;;;;;15.30;4.80;;;3.20;99.90;;;;;;5042691;28;20198;-53
2024/01/28 00:35:00;;;;;;;9.87;4.27;;;3.10;99.90;;;;;;5026055;28;20810;-52
2024/01/28 00:37:25;;;;;;;10.00;4.90;;;3.00;99.90;;;;;;5011697;28;20206;-53
2024/01/28 00:39:51;;;;;;;8.60;3.60;;;3.10;99.90;;;;;;5037183;28;20198;-52
2024/01/28 00:42:16;;;;;;;16.73;4.60;;;3.10;99.90;;;;;;5038210;28;20209;-53
2024/01/28 00:44:42;;;;;;;8.73;4.07;;;3.00;99.90;;;;;;5038656;28;20191;-52
2024/01/28 00:47:07;;;;;;;14.50;4.00;;;3.00;99.90;;;;;;5043671;28;20285;-53
2024/01/28 00:49:33;;;;;;;11.43;4.17;;;3.00;99.90;;;;;;5040692;28;20927;-52
2024/01/28 00:52:00;;;;;;;8.20;4.40;;;3.30;99.90;;;;;;5030586;28;20194;-52
2024/01/28 00:54:26;;;;;;;16.27;4.43;;;3.50;99.90;;;;;;5041018;28;20218;-54
2024/01/28 00:56:56;;;;;;;11.17;4.07;;;3.60;99.90;;;;;;5024862;28;20244;-51
2024/01/28 00:59:21;;;;;;;12.33;4.30;;;3.50;99.90;;;;;;5052308;28;20232;-51
2024/01/28 01:01:47;;;;;;;10.47;3.53;;;3.80;99.90;;;;;;5044422;28;20273;-51
2024/01/28 01:04:13;;;;;;;12.83;3.80;;;3.90;99.90;;;;;;5024311;28;20201;-56
2024/01/28 01:06:42;;;;;;;13.17;5.23;;;3.90;99.90;;;;;;5027873;28;20816;-56
2024/01/28 01:09:07;;;;;;;11.07;3.90;;;3.90;99.90;;;;;;5048067;28;20235;-56
2024/01/28 01:11:36;;;;;;;15.30;4.53;;;3.70;99.90;;;;;;5044328;28;20702;-53
2024/01/28 01:14:01;;;;;;;19.63;4.67;;;3.50;99.90;;;;;;5047391;28;20242;-51
2024/01/28 01:16:27;;;;;;;15.10;5.33;;;3.40;99.90;;;;;;5048148;28;20285;-52
2024/01/28 01:18:54;;;;;;;12.10;4.47;;;3.40;99.90;;;;;;5030726;28;20198;-51
2024/01/28 01:21:19;;;;;;;9.43;4.33;;;3.40;99.90;;;;;;5050541;28;20279;-51
2024/01/28 01:23:45;;;;;;;11.90;4.60;;;3.40;99.90;;;;;;5047408;28;20598;-55
2024/01/28 01:26:10;;;;;;;16.73;4.57;;;3.30;99.90;;;;;;5008665;28;20607;-60
2024/01/28 01:28:36;;;;;;;11.10;3.80;;;3.20;99.90;;;;;;5034058;28;20205;-52
2024/01/28 01:31:02;;;;;;;10.07;4.57;;;3.30;99.90;;;;;;5043448;28;20287;-52
2024/01/28 01:33:28;;;;;;;10.67;4.00;;;3.20;99.90;;;;;;5041720;28;20714;-51
2024/01/28 01:35:54;;;;;;;13.50;4.20;;;3.40;99.90;;;;;;5030626;28;20209;-52
2024/01/28 01:38:20;;;;;;;9.37;3.90;;;3.50;99.90;;;;;;5045487;28;20573;-54
2024/01/28 01:40:45;;;;;;;14.57;4.53;;;3.60;99.90;;;;;;5048967;28;20194;-53
2024/01/28 01:43:12;;;;;;;12.33;4.20;;;3.70;99.90;;;;;;5042514;28;20292;-52
2024/01/28 01:45:38;;;;;;;8.67;4.30;;;3.60;99.90;;;;;;5034075;28;20201;-52
2024/01/28 01:48:10;;;;;;;9.60;4.10;;;3.60;99.90;;;;;;5048473;28;20287;-52
2024/01/28 01:50:36;;;;;;;7.87;3.87;;;3.80;99.90;;;;;;5054780;28;20632;-50
2024/01/28 01:53:03;;;;;;;11.70;4.23;;;3.80;99.90;;;;;;5033212;28;20198;-52
2024/01/28 01:55:29;;;;;;;7.37;3.73;;;4.10;99.90;;;;;;5034044;28;21059;-51
2024/01/28 01:57:55;;;;;;;10.03;4.13;;;4.20;99.90;;;;;;5038958;28;20203;-52
2024/01/28 02:00:20;;;;;;;9.57;4.23;;;4.30;99.90;;;;;;5053261;28;20209;-51
2024/01/28 02:02:46;;;;;;;11.37;4.20;;;4.10;99.90;;;;;;5029446;28;20213;-51
2024/01/28 02:05:12;;;;;;;8.93;4.13;;;3.90;99.90;;;;;;5027453;28;20198;-51
2024/01/28 02:07:38;;;;;;;9.57;4.13;;;3.90;99.90;;;;;;5049751;28;20208;-51
2024/01/28 02:10:05;;;;;;;9.03;3.80;;;3.90;99.90;;;;;;5043586;28;20206;-51
2024/01/28 02:12:30;;;;;;;8.67;3.50;;;3.90;99.90;;;;;;5055403;28;20293;-51
2024/01/28 02:15:07;;;;;;;9.30;4.37;;;4.00;99.90;;;;;;5036038;28;20312;-51
2024/01/28 02:17:33;;;;;;;10.30;4.53;;;4.00;99.90;;;;;;5049438;28;20201;-51
2024/01/28 02:19:59;;;;;;;10.03;4.10;;;4.10;99.90;;;;;;5048728;28;20202;-51
2024/01/28 02:22:24;;;;;;;9.53;4.23;;;4.20;99.90;;;;;;5050434;28;20207;-51
2024/01/28 02:24:51;;;;;;;12.73;4.10;;;4.00;99.90;;;;;;5052360;28;20257;-51
2024/01/28 02:27:16;;;;;;;9.27;4.53;;;4.00;99.90;;;;;;5044557;28;20201;-51
2024/01/28 02:29:42;;;;;;;9.67;3.87;;;4.10;99.90;;;;;;5051320;28;20209;-52
2024/01/28 02:32:10;;;;;;;11.23;4.23;;;4.20;99.90;;;;;;5025191;28;20217;-52
2024/01/28 02:34:36;;;;;;;7.23;3.87;;;4.00;99.90;;;;;;5027598;28;20693;-52
2024/01/28 02:37:01;;;;;;;16.27;4.73;;;3.60;99.90;;;;;;5042537;28;20526;-51
2024/01/28 02:39:27;;;;;;;9.07;4.20;;;3.60;99.90;;;;;;5029245;28;20204;-50
2024/01/28 02:41:52;;;;;;;16.73;5.17;;;3.60;99.90;;;;;;5051841;28;20791;-50
2024/01/28 02:44:18;;;;;;;11.17;4.70;;;3.80;99.90;;;;;;5048240;28;20196;-51
2024/01/28 02:46:43;;;;;;;12.03;4.27;;;3.90;99.90;;;;;;5046013;28;20225;-51
2024/01/28 02:49:09;;;;;;;11.73;4.10;;;4.00;99.90;;;;;;5032119;28;21158;-50
2024/01/28 02:51:35;;;;;;;12.03;3.50;;;3.90;99.90;;;;;;5044137;28;20199;-51
2024/01/28 02:54:02;;;;;;;6.77;3.83;;;3.90;99.90;;;;;;5032288;28;20272;-51
2024/01/28 02:56:27;;;;;;;7.47;4.13;;;3.80;99.90;;;;;;5054283;28;20202;-51
2024/01/28 02:58:54;;;;;;;10.50;5.30;;;3.60;99.90;;;;;;5049806;28;20205;-51
2024/01/28 03:01:20;;;;;;;9.43;2.87;;;3.50;99.90;;;;;;5049837;28;20195;-51
2024/01/28 03:03:45;;;;;;;8.47;3.50;;;3.60;99.90;;;;;;5054203;28;20210;-50
2024/01/28 03:06:11;;;;;;;7.87;3.00;;;3.80;99.90;;;;;;5053258;28;20260;-50
2024/01/28 03:08:36;;;;;;;8.13;3.37;;;3.90;99.90;;;;;;5045811;28;20264;-50
2024/01/28 03:11:02;;;;;;;11.87;3.60;;;4.00;99.90;;;;;;5045075;28;20211;-50
2024/01/28 03:13:27;;;;;;;11.20;4.13;;;4.10;99.90;;;;;;5037074;28;20207;-51
2024/01/28 03:15:54;;;;;;;10.83;3.93;;;4.00;99.90;;;;;;5054428;28;20895;-50
2024/01/28 03:18:21;;;;;;;9.63;3.60;;;4.00;99.90;;;;;;5061058;28;20720;-50
2024/01/28 03:20:46;;;;;;;8.77;3.77;;;4.00;99.90;;;;;;5037543;28;20217;-51
2024/01/28 03:23:12;;;;;;;7.03;3.50;;;3.90;99.90;;;;;;5055639;28;20198;-51
2024/01/28 03:25:38;;;;;;;15.37;5.53;;;3.90;99.90;;;;;;5029668;28;20201;-51
2024/01/28 03:28:05;;;;;;;8.60;4.10;;;3.80;99.90;;;;;;5041240;28;20206;-51
2024/01/28 03:30:30;;;;;;;7.53;3.60;;;3.80;99.90;;;;;;5029405;28;20541;-50
2024/01/28 03:32:56;;;;;;;5.87;3.50;;;3.80;99.90;;;;;;5050819;28;20213;-50
2024/01/28 03:35:21;;;;;;;9.47;4.00;;;3.80;99.90;;;;;;5054612;28;20206;-50
2024/01/28 03:37:47;;;;;;;11.90;4.03;;;3.70;99.90;;;;;;5051811;28;20198;-50
2024/01/28 03:40:12;;;;;;;11.13;4.07;;;3.70;99.90;;;;;;5041104;28;20216;-56
2024/01/28 03:42:38;;;;;;;11.73;3.90;;;3.60;99.90;;;;;;5043970;28;20213;-57
2024/01/28 03:45:04;;;;;;;9.83;3.83;;;3.60;99.90;;;;;;5048146;28;20209;-50
2024/01/28 03:47:29;;;;;;;10.47;4.60;;;3.70;99.90;;;;;;5050590;28;20744;-52
2024/01/28 03:49:55;;;;;;;7.60;3.43;;;3.70;99.90;;;;;;5048075;28;20668;-51
2024/01/28 03:52:20;;;;;;;7.77;3.70;;;3.70;99.90;;;;;;5030251;28;20338;-50
2024/01/28 03:54:46;;;;;;;9.00;4.03;;;3.70;99.90;;;;;;5051141;28;20210;-51
2024/01/28 03:57:11;;;;;;;9.23;3.80;;;3.60;99.90;;;;;;5034191;28;20193;-51
2024/01/28 03:59:40;;;;;;;10.03;4.40;;;3.50;99.90;;;;;;5048630;28;20201;-50
2024/01/28 04:02:07;;;;;;;8.07;4.23;;;3.40;99.90;;;;;;5043799;28;20206;-50
2024/01/28 04:04:33;;;;;;;9.37;3.83;;;3.30;99.90;;;;;;5047019;28;20281;-49
2024/01/28 04:06:58;;;;;;;7.97;3.97;;;3.10;99.90;;;;;;5045104;28;20312;-50
2024/01/28 04:09:24;;;;;;;14.40;4.83;;;2.90;99.90;;;;;;5050639;28;20297;-50
2024/01/28 04:11:50;;;;;;;14.43;4.13;;;2.80;99.90;;;;;;5057005;28;20220;-50
2024/01/28 04:14:15;;;;;;;10.73;3.87;;;2.90;99.90;;;;;;5046674;28;20222;-50
2024/01/28 04:16:41;;;;;;;10.23;3.63;;;3.00;99.90;;;;;;5032609;28;20206;-50
2024/01/28 04:19:06;;;;;;;10.00;5.70;;;3.20;99.90;;;;;;5035986;28;20190;-49
2024/01/28 04:21:32;;;;;;;8.73;3.50;;;3.40;99.90;;;;;;5052838;28;20198;-50
2024/01/28 04:23:58;;;;;;;17.30;4.83;;;3.50;99.90;;;;;;5048421;28;20278;-50
2024/01/28 04:26:24;;;;;;;9.17;4.47;;;3.40;99.90;;;;;;5041881;28;21188;-51
2024/01/28 04:28:50;;;;;;;7.20;4.20;;;3.40;99.90;;;;;;5053030;28;20209;-50
2024/01/28 04:31:16;;;;;;;8.93;5.67;;;3.20;99.90;;;;;;5051004;28;20202;-50
2024/01/28 04:33:41;;;;;;;6.17;3.57;;;3.20;99.90;;;;;;5046681;28;20277;-49
2024/01/28 04:36:07;;;;;;;5.50;3.57;;;3.30;99.90;;;;;;5063090;28;20203;-51
2024/01/28 04:38:36;;;;;;;5.73;3.57;;;3.30;99.90;;;;;;5072254;28;20205;-49
2024/01/28 04:41:02;;;;;;;9.13;3.53;;;3.30;99.90;;;;;;5069195;28;20316;-49
2024/01/28 04:43:27;;;;;;;9.03;4.07;;;3.40;99.90;;;;;;5058549;28;20953;-49
2024/01/28 04:45:53;;;;;;;8.33;4.17;;;3.30;99.90;;;;;;5047867;28;20205;-49
2024/01/28 04:48:19;;;;;;;12.57;4.87;;;3.20;99.90;;;;;;5071786;28;20208;-49
2024/01/28 04:50:45;;;;;;;7.40;3.30;;;3.20;99.90;;;;;;5061016;28;20212;-50
2024/01/28 04:53:10;;;;;;;11.87;4.70;;;3.30;99.90;;;;;;5073473;28;20197;-49
2024/01/28 04:55:36;;;;;;;10.20;3.53;;;3.30;99.90;;;;;;5077593;28;20209;-50
2024/01/28 04:58:02;;;;;;;11.33;4.43;;;3.30;99.90;;;;;;5049873;28;20198;-55
2024/01/28 05:00:28;;;;;;;11.43;4.77;;;3.40;99.90;;;;;;5079389;28;20193;-53
2024/01/28 05:02:56;;;;;;;6.30;3.93;;;3.40;99.90;;;;;;5048116;28;20198;-50
2024/01/28 05:05:22;;;;;;;8.77;3.63;;;3.40;99.90;;;;;;5069771;28;20193;-49
2024/01/28 05:07:48;;;;;;;8.60;3.73;;;3.40;99.90;;;;;;5071614;28;20204;-49
2024/01/28 05:10:14;;;;;;;9.60;4.73;;;3.40;99.90;;;;;;5071735;28;20562;-49
2024/01/28 05:12:40;;;;;;;10.10;4.67;;;3.30;99.90;;;;;;5071229;28;20216;-52
2024/01/28 05:15:06;;;;;;;13.13;4.87;;;3.40;99.90;;;;;;5061143;28;20563;-50
2024/01/28 05:17:34;;;;;;;7.07;3.67;;;3.40;99.90;;;;;;5070719;28;20280;-49
2024/01/28 05:20:00;;;;;;;12.43;4.77;;;3.50;99.90;;;;;;5076018;28;20198;-49
2024/01/28 05:22:25;;;;;;;6.23;3.27;;;3.40;99.90;;;;;;5073173;28;20559;-53
2024/01/28 05:24:51;;;;;;;13.50;4.20;;;3.40;99.90;;;;;;5056022;28;20204;-51
2024/01/28 05:27:17;;;;;;;9.30;4.03;;;3.30;99.90;;;;;;5046670;28;20208;-51
2024/01/28 05:29:42;;;;;;;10.33;4.10;;;3.10;99.90;;;;;;5075801;28;20193;-51
2024/01/28 05:32:08;;;;;;;11.17;4.00;;;3.00;99.90;;;;;;5066862;28;20207;-51
2024/01/28 05:34:34;;;;;;;5.93;4.17;;;3.00;99.90;;;;;;5069785;28;20228;-51
2024/01/28 05:36:59;;;;;;;12.97;3.50;;;2.90;99.90;;;;;;5046653;28;20193;-50
2024/01/28 05:39:25;;;;;;;10.87;4.10;;;2.80;99.90;;;;;;5071603;28;20747;-51
2024/01/28 05:41:51;;;;;;;9.37;3.93;;;2.60;99.90;;;;;;5080293;28;20203;-51
2024/01/28 05:44:16;;;;;;;9.77;4.10;;;2.60;99.90;;;;;;5064958;28;20718;-51
2024/01/28 05:46:42;;;;;;;5.40;3.70;;;2.60;99.90;;;;;;5061684;28;20201;-51
2024/01/28 05:49:11;;;;;;;10.07;3.57;;;2.60;99.90;;;;;;5063764;28;20197;-51
2024/01/28 05:51:39;;;;;;;13.30;4.03;;;2.50;99.90;;;;;;5070808;28;20208;-52
2024/01/28 05:54:05;;;;;;;7.40;3.70;;;2.50;99.90;;;;;;5065636;28;20269;-51
2024/01/28 05:56:31;;;;;;;8.03;3.50;;;2.50;99.90;;;;;;5046222;28;20208;-51
2024/01/28 05:58:56;;;;;;;9.30;5.13;;;2.60;99.90;;;;;;5051346;28;20267;-51
2024/01/28 06:01:22;;;;;;;7.27;3.43;;;2.60;99.90;;;;;;5065017;28;20809;-50
2024/01/28 06:03:48;;;;;;;10.20;4.13;;;2.50;99.90;;;;;;5074348;28;20201;-52
2024/01/28 06:06:13;;;;;;;9.90;3.63;;;2.50;99.90;;;;;;5066487;28;20349;-50
2024/01/28 06:08:41;;;;;;;9.17;4.13;;;2.50;99.90;;;;;;5070534;28;20228;-51
2024/01/28 06:11:07;;;;;;;7.17;3.77;;;2.50;99.90;;;;;;5065243;28;20208;-50
2024/01/28 06:13:32;;;;;;;9.73;3.93;;;2.50;99.90;;;;;;5065581;28;20215;-50
2024/01/28 06:15:58;;;;;;;6.27;3.33;;;2.50;99.90;;;;;;5075311;28;20202;-50
2024/01/28 06:18:23;;;;;;;9.60;3.13;;;2.50;99.90;;;;;;5070405;28;20794;-50
2024/01/28 06:20:49;;;;;;;7.10;3.93;;;2.50;99.90;;;;;;5057199;28;20192;-50
2024/01/28 06:23:14;;;;;;;11.30;3.80;;;2.50;99.90;;;;;;5057911;28;20278;-51
2024/01/28 06:25:40;;;;;;;10.43;4.23;;;2.60;99.90;;;;;;5075296;28;20196;-50
2024/01/28 06:28:08;;;;;;;8.90;3.57;;;2.50;99.90;;;;;;5068565;28;20200;-51
2024/01/28 06:30:35;;;;;;;12.90;4.40;;;2.50;99.90;;;;;;5069549;28;20265;-50
2024/01/28 06:33:02;;;;;;;10.37;3.63;;;2.40;99.90;;;;;;5049725;28;20229;-51
2024/01/28 06:35:28;;;;;;;8.63;4.27;;;2.40;99.90;;;;;;5072468;28;20210;-51
2024/01/28 06:37:54;;;;;;;7.47;3.57;;;2.40;99.90;;;;;;5075245;28;20963;-51
2024/01/28 06:40:20;;;;;;;8.50;4.07;;;2.40;99.90;;;;;;5051045;28;20213;-51
2024/01/28 06:42:45;;;;;;;8.77;3.77;;;2.30;99.90;;;;;;5076288;28;20298;-50
2024/01/28 06:45:11;;;;;;;7.47;3.63;;;2.40;99.90;;;;;;5074139;28;20229;-50
2024/01/28 06:47:36;;;;;;;7.90;4.33;;;2.40;99.90;;;;;;5052547;28;20280;-50
2024/01/28 06:50:02;;;;;;;14.10;4.13;;;2.40;99.90;;;;;;5048677;28;20222;-50
2024/01/28 06:52:29;;;;;;;9.87;4.00;;;2.40;99.90;;;;;;5076580;28;20283;-50
2024/01/28 06:54:54;;;;;;;13.33;4.10;;;2.40;99.90;;;;;;5075342;28;20784;-50
2024/01/28 06:57:20;;;;;;;8.03;4.30;;;2.30;99.90;;;;;;5054414;28;20687;-51
2024/01/28 06:59:45;;;;;;;8.97;5.23;;;2.30;99.90;;;;;;5079033;28;20223;-51
2024/01/28 07:02:12;;;;;;;7.90;4.07;;;2.30;99.90;;;;;;5060281;28;20202;-51
2024/01/28 07:04:38;;;;;;;11.73;5.37;;;2.30;99.90;;;;;;5076507;28;20207;-51
2024/01/28 07:07:03;;;;;;;12.27;4.87;;;2.30;99.90;;;;;;5075585;28;20531;-51
2024/01/28 07:09:29;;;;;;;10.03;4.93;;;2.30;99.90;;;;;;5076632;28;20632;-51
2024/01/28 07:11:55;;;;;;;10.83;5.87;;;2.30;99.90;;;;;;5076053;28;20689;-51
2024/01/28 07:14:22;;;;;;;11.10;5.27;;;2.20;99.90;;;;;;5079523;28;20281;-51
2024/01/28 07:16:47;;;;;;;13.27;4.73;;;2.20;99.90;;;;;;5078364;28;20673;-52
2024/01/28 07:19:13;;;;;;;8.00;4.23;;;2.30;99.90;;;;;;5082487;28;20234;-51
2024/01/28 07:21:39;;;;;;;10.27;4.83;;;2.30;99.90;;;;;;5081922;28;20223;-51
2024/01/28 07:24:04;;;;;;;19.80;8.07;;;2.40;99.90;;;;;;5062139;28;20200;-50
2024/01/28 07:26:30;;;;;;;12.97;5.63;;;2.40;99.90;;;;;;5076451;28;20196;-52
2024/01/28 07:28:55;;;;;;;11.73;5.70;;;2.40;99.90;;;;;;5076418;28;20226;-51
2024/01/28 07:31:21;;;;;;;9.27;5.30;;;2.50;99.90;;;;;;5079898;28;20228;-51
2024/01/28 07:33:47;;;;;;;11.57;5.93;;;2.50;99.90;;;;;;5076511;28;20220;-51
2024/01/28 07:36:12;;;;;;;15.03;6.53;;;2.40;99.90;;;;;;5076907;28;20189;-58
2024/01/28 07:38:38;;;;;;;15.20;6.13;;;2.40;99.90;;;;;;5079163;28;20198;-52
2024/01/28 07:41:03;;;;;;;20.83;7.70;;;2.30;99.90;;;;;;5076877;28;20210;-51
2024/01/28 07:43:29;;;;;;;11.47;6.10;;;2.30;99.90;;;;;;5066630;28;20202;-50
2024/01/28 07:45:55;;;;;;;10.17;5.37;;;2.30;99.90;;;;;;5061725;28;20224;-51
2024/01/28 07:48:20;;;;;;;9.87;4.90;;;2.20;99.90;;;;;;5072227;28;20303;-52
2024/01/28 07:50:46;;;;;;;21.10;6.80;;;2.20;99.90;;;;;;5049955;28;20198;-51
2024/01/28 07:53:13;;;;;;;16.37;5.73;;;2.20;99.90;;;;;;5068363;28;20226;-51
2024/01/28 07:55:38;;;;;;;9.03;5.63;;;2.20;99.90;;;;;;5050029;28;20249;-51
2024/01/28 07:58:04;;;;;;;9.87;5.50;;;2.20;99.90;;;;;;5065399;28;20218;-52
2024/01/28 08:00:29;;;;;;;8.97;5.50;;;2.30;99.90;;;;;;5067195;28;20196;-51
2024/01/28 08:02:55;;;;;;;12.43;6.63;;;2.30;99.90;;;;;;5064613;28;20536;-51
2024/01/28 08:05:20;;;;;;;10.63;6.27;;;2.40;99.90;;;;;;5067583;28;20200;-53
2024/01/28 08:07:46;;;;;;;13.70;6.47;;;2.40;99.90;;;;;;5053695;28;20296;-51
2024/01/28 08:10:11;;;;;;;9.20;6.37;;;2.40;99.90;;;;;;5074177;28;20208;-52
2024/01/28 08:12:37;;;;;;;9.20;5.40;;;2.50;99.90;;;;;;5066361;28;20212;-51
2024/01/28 08:15:03;;;;;;;12.43;6.10;;;2.40;99.90;;;;;;5049583;28;20248;-51
2024/01/28 08:17:29;;;;;;;11.67;5.63;;;2.40;99.90;;;;;;5055705;28;20199;-51
2024/01/28 08:19:54;;;;;;;10.40;5.70;;;2.50;99.90;;;;;;5073456;28;20215;-51
2024/01/28 08:22:20;;;;;;;8.27;5.60;;;2.60;99.90;;;;;;5053843;28;20196;-51
2024/01/28 08:24:45;;;;;;;18.20;6.50;;;2.70;99.90;;;;;;5072741;28;20340;-50
2024/01/28 08:27:11;;;;;;;16.27;6.47;;;2.90;99.90;;;;;;5063596;28;20202;-50
2024/01/28 08:29:37;;;;;;;16.67;6.63;;;3.00;99.90;;;;;;5048820;28;20207;-51
2024/01/28 08:32:03;;;;;;;8.03;6.03;;;3.00;99.90;;;;;;5066407;28;20201;-51
2024/01/28 08:34:29;;;;;;;11.93;6.80;;;3.00;99.90;;;;;;5072892;28;20314;-51
2024/01/28 08:36:54;;;;;;;13.47;5.73;;;3.00;99.90;;;;;;5060791;28;20197;-54
2024/01/28 08:39:20;;;;;;;10.97;6.20;;;3.10;99.90;;;;;;5042242;28;20866;-58
2024/01/28 08:41:45;;;;;;;10.43;5.43;;;3.10;99.90;;;;;;5069610;28;20201;-55
2024/01/28 08:44:11;;;;;;;10.03;6.53;;;3.10;99.90;;;;;;5069450;28;20209;-54
2024/01/28 08:46:40;;;;;;;15.57;6.40;;;3.20;99.90;;;;;;5064408;28;20207;-53
2024/01/28 08:49:06;;;;;;;13.73;6.40;;;3.30;99.90;;;;;;5073207;28;20267;-52
2024/01/28 08:51:31;;;;;;;16.23;6.80;;;3.30;99.90;;;;;;5047573;28;20233;-51
2024/01/28 08:53:57;;;;;;;14.03;6.27;;;3.30;99.90;;;;;;5059904;28;20316;-59
2024/01/28 08:56:22;;;;;;;14.30;6.57;;;3.30;99.90;;;;;;5048496;28;20203;-60
2024/01/28 08:58:47;;;;;;;12.47;6.63;;;3.30;99.90;;;;;;5071140;28;20620;-54
2024/01/28 09:01:13;;;;;;;20.30;6.17;;;3.30;99.90;;;;;;5062857;28;20213;-55
2024/01/28 09:03:39;;;;;;;12.83;6.90;;;3.40;99.90;;;;;;5069855;28;20276;-59
2024/01/28 09:06:06;;;;;;;11.20;6.53;;;3.30;99.90;;;;;;5070564;28;20196;-53
2024/01/28 09:08:31;;;;;;;9.30;6.43;;;3.30;99.90;;;;;;5072890;28;20195;-50
2024/01/28 09:10:57;;;;;;;9.60;5.87;;;3.30;99.90;;;;;;5057127;28;20201;-52
2024/01/28 09:13:24;;;;;;;16.97;7.37;;;3.40;99.90;;;;;;5066273;28;20209;-61
2024/01/28 09:15:50;;;;;;;9.10;5.83;;;3.50;99.90;;;;;;5070200;28;20201;-53
2024/01/28 09:18:15;;;;;;;14.57;5.77;;;3.50;99.90;;;;;;5065605;28;20240;-53
2024/01/28 09:20:41;;;;;;;12.33;6.67;;;3.60;99.90;;;;;;5064700;28;20213;-55
2024/01/28 09:23:07;;;;;;;8.73;6.10;;;3.60;99.90;;;;;;5056409;28;20205;-52
2024/01/28 09:25:33;;;;;;;11.23;5.40;;;3.60;99.90;;;;;;5055493;28;20198;-53
2024/01/28 09:28:00;;;;;;;12.17;6.67;;;3.70;99.90;;;;;;5046978;28;20201;-53
2024/01/28 09:30:25;;;;;;;12.47;6.60;;;3.70;99.90;;;;;;5046852;28;20648;-52
2024/01/28 09:32:51;;;;;;;13.63;6.43;;;3.70;99.90;;;;;;5072018;28;20206;-51
2024/01/28 09:35:16;;;;;;;13.97;6.03;;;3.80;99.90;;;;;;5054280;28;20725;-51
2024/01/28 09:37:42;;;;;;;12.50;5.13;;;3.90;99.90;;;;;;5074774;28;20209;-51
2024/01/28 09:40:10;;;;;;;11.40;5.20;;;4.00;99.90;;;;;;5071893;28;20223;-51
2024/01/28 09:42:42;;;;;;;9.03;5.37;;;4.10;99.90;;;;;;5072355;28;20681;-52
2024/01/28 09:45:09;;;;;;;10.27;5.37;;;4.10;99.90;;;;;;5064668;28;20209;-53
2024/01/28 09:47:35;;;;;;;11.70;5.83;;;4.10;99.90;;;;;;5055085;28;20197;-53
2024/01/28 09:50:03;;;;;;;12.43;6.07;;;4.10;99.90;;;;;;5063224;28;20194;-53
2024/01/28 09:52:29;;;;;;;11.53;5.53;;;4.20;99.90;;;;;;5061931;28;20693;-51
2024/01/28 09:54:55;;;;;;;14.17;6.37;;;4.30;99.90;;;;;;5069334;28;20217;-58
2024/01/28 09:57:21;;;;;;;12.53;6.33;;;4.40;99.90;;;;;;5046869;28;20560;-56
2024/01/28 09:59:47;;;;;;;12.70;5.47;;;4.50;99.90;;;;;;5072130;28;20288;-61
2024/01/28 10:02:15;;;;;;;17.63;5.83;;;4.50;99.90;;;;;;5054153;28;21090;-53
2024/01/28 10:04:42;;;;;;;12.77;6.00;;;4.50;99.90;;;;;;5057478;28;20696;-57
2024/01/28 10:07:09;;;;;;;9.90;4.73;;;4.60;99.90;;;;;;5041461;28;20205;-53
2024/01/28 10:09:34;;;;;;;14.67;5.00;;;4.60;99.90;;;;;;5041790;28;20197;-54
2024/01/28 10:12:01;;;;;;;12.23;6.10;;;4.60;99.90;;;;;;5046216;28;20182;-52
2024/01/28 10:14:27;;;;;;;12.63;5.30;;;4.70;99.90;;;;;;5048320;28;21043;-53
2024/01/28 10:16:54;;;;;;;10.13;5.27;;;4.70;99.90;;;;;;5049128;28;20208;-55
2024/01/28 10:19:20;;;;;;;10.73;4.53;;;4.80;99.90;;;;;;5048161;28;20667;-52
2024/01/28 10:21:46;;;;;;;6.90;5.03;;;4.90;99.90;;;;;;5047694;28;20201;-53
2024/01/28 10:24:14;;;;;;;7.97;4.57;;;4.90;99.90;;;;;;5060280;28;20675;-54
2024/01/28 10:26:40;;;;;;;18.03;5.63;;;5.00;99.90;;;;;;5061100;28;20342;-53
2024/01/28 10:29:09;;;;;;;7.50;4.43;;;5.10;99.90;;;;;;5050810;28;20190;-52
2024/01/28 10:31:34;;;;;;;11.00;5.20;;;5.20;99.90;;;;;;5045508;28;20228;-52
2024/01/28 10:34:00;;;;;;;17.67;5.33;;;5.30;99.90;;;;;;5046533;28;20320;-52
2024/01/28 10:36:26;;;;;;;6.23;4.40;;;5.50;99.90;;;;;;5045763;28;20200;-52
2024/01/28 10:38:55;;;;;;;15.00;5.17;;;5.60;99.90;;;;;;5066946;28;20205;-52
2024/01/28 10:41:21;;;;;;;13.73;4.83;;;5.80;99.90;;;;;;5047273;28;20204;-53
2024/01/28 10:43:59;;;;;;;14.60;4.83;;;6.10;99.90;;;;;;5051800;28;20198;-52
2024/01/28 10:46:44;;;;;;;9.80;4.17;;;6.20;99.90;;;;;;5055411;28;20197;-51
2024/01/28 10:49:11;;;;;;;14.87;4.80;;;6.30;99.90;;;;;;5051658;28;20189;-52
2024/01/28 10:51:39;;;;;;;13.33;4.27;;;6.50;99.90;;;;;;5053139;28;20202;-53
2024/01/28 10:54:07;;;;;;;21.80;6.50;;;6.70;99.90;;;;;;5048879;28;20316;-52
2024/01/28 10:56:42;;;;;;;10.03;4.70;;;6.90;99.90;;;;;;5067323;28;20186;-52
2024/01/28 10:59:11;;;;;;;9.50;4.13;;;7.10;99.90;;;;;;5065433;28;20195;-53
2024/01/28 11:01:38;;;;;;;9.30;4.10;;;7.30;99.90;;;;;;5065269;28;20186;-51
2024/01/28 11:04:04;;;;;;;14.77;4.33;;;7.40;99.90;;;;;;5060573;28;20284;-54
2024/01/28 11:06:30;;;;;;;9.73;3.40;;;7.60;99.90;;;;;;5056985;28;20209;-53
2024/01/28 11:08:56;;;;;;;11.70;4.00;;;7.60;99.90;;;;;;5040853;28;20201;-54
2024/01/28 11:11:22;;;;;;;9.23;3.97;;;7.70;99.90;;;;;;5059802;28;20232;-54
2024/01/28 11:13:48;;;;;;;7.67;4.23;;;7.80;99.90;;;;;;5045212;28;20259;-53
2024/01/28 11:16:15;;;;;;;10.27;4.07;;;8.00;99.90;;;;;;5066381;28;20313;-55
2024/01/28 11:18:52;;;;;;;11.73;4.10;;;8.10;99.90;;;;;;5063599;28;21187;-55
2024/01/28 11:21:19;;;;;;;11.97;4.07;;;8.10;99.90;;;;;;5046878;28;20556;-53
2024/01/28 11:23:48;;;;;;;8.83;3.97;;;8.20;99.90;;;;;;5046213;28;20204;-56
2024/01/28 11:26:18;;;;;;;9.63;2.87;;;8.30;99.90;;;;;;5053124;28;20213;-55
2024/01/28 11:28:50;;;;;;;9.30;3.40;;;8.50;99.90;;;;;;5057878;28;20403;-53
2024/01/28 11:31:33;;;;;;;10.30;3.83;;;8.40;99.90;;;;;;5071031;28;20914;-53
2024/01/28 11:34:15;;;;;;;7.13;3.10;;;8.40;99.90;;;;;;5052869;28;20400;-52
2024/01/28 11:36:45;;;;;;;8.00;4.83;;;8.50;99.90;;;;;;5077819;28;20251;-53
2024/01/28 11:39:13;;;;;;;9.77;4.87;;;8.80;99.90;;;;;;5047670;28;20380;-54
2024/01/28 11:41:41;;;;;;;13.80;4.10;;;9.10;99.90;;;;;;5068844;28;20194;-53
2024/01/28 11:44:08;;;;;;;8.50;3.60;;;9.20;99.90;;;;;;5072797;28;20191;-62
2024/01/28 11:46:38;;;;;;;5.27;4.00;;;9.50;99.90;;;;;;5074691;28;20359;-52
2024/01/28 11:49:13;;;;;;;9.10;3.93;;;9.30;99.90;;;;;;5048864;28;20749;-53
2024/01/28 11:51:38;;;;;;;12.40;3.93;;;9.10;99.90;;;;;;5072275;28;20278;-58
2024/01/28 11:54:04;;;;;;;13.90;3.70;;;9.20;99.90;;;;;;5058051;28;20275;-54
2024/01/28 11:56:34;;;;;;;8.83;3.10;;;9.30;99.90;;;;;;5056895;28;20198;-52
2024/01/28 11:59:01;;;;;;;13.27;3.83;;;9.40;99.90;;;;;;5050017;28;20254;-53
2024/01/28 12:01:27;;;;;;;9.87;3.57;;;9.60;99.90;;;;;;5056900;28;20758;-53
2024/01/28 12:03:54;;;;;;;8.70;3.40;;;9.70;99.90;;;;;;5065212;28;20325;-52
2024/01/28 12:06:22;;;;;;;7.70;3.67;;;10.00;99.70;;;;;;5050613;28;20232;-55
2024/01/28 12:08:47;;;;;;;7.47;3.73;;;10.10;99.10;;;;;;5067064;28;20210;-53
2024/01/28 12:11:16;;;;;;;5.73;3.30;;;10.30;98.70;;;;;;5071209;28;20248;-52
2024/01/28 12:13:44;;;;;;;8.13;3.13;;;10.40;98.40;;;;;;5063389;22;20734;-51
2024/01/28 12:16:10;;;;;;;10.23;4.13;;;10.70;97.80;;;;;;5016487;28;20292;-53
2024/01/28 12:18:41;;;;;;;11.63;3.50;;;10.90;97.50;;;;;;5032530;28;20312;-52
2024/01/28 12:21:25;;;;;;;10.83;4.63;;;11.00;96.50;;;;;;5059043;22;21266;-53
2024/01/28 12:23:57;;;;;;;6.43;3.80;;;11.10;95.10;;;;;;5052415;28;20307;-53
2024/01/28 12:26:24;;;;;;;15.37;3.43;;;10.90;95.50;;;;;;5036954;28;20693;-52
2024/01/28 12:28:51;;;;;;;11.90;4.53;;;10.80;96.60;;;;;;5051927;28;20206;-52
2024/01/28 12:31:20;;;;;;;7.27;3.50;;;11.20;96.40;;;;;;5052248;28;20473;-51
2024/01/28 12:33:47;;;;;;;8.77;4.23;;;11.40;95.70;;;;;;5040778;28;20420;-53
2024/01/28 12:36:13;;;;;;;12.10;3.20;;;11.70;94.40;;;;;;5044584;28;20785;-53
2024/01/28 12:38:38;;;;;;;9.10;3.63;;;11.90;93.50;;;;;;5048805;28;20204;-51
2024/01/28 12:41:08;;;;;;;4.93;3.50;;;12.10;93.80;;;;;;5031712;28;20204;-51
2024/01/28 12:43:34;;;;;;;9.97;3.60;;;12.30;92.60;;;;;;5043028;28;20194;-53
2024/01/28 12:46:01;;;;;;;8.07;3.70;;;12.50;91.80;;;;;;5050708;28;20209;-53